createdAt,value
2018-10-16T00:00:24.198Z,16.00
2018-10-16T00:01:29.228Z,15.90
2018-10-16T00:02:33.755Z,15.90
2018-10-16T00:03:38.288Z,15.90
2018-10-16T00:04:42.811Z,15.90
2018-10-16T00:05:47.316Z,15.90
2018-10-16T00:06:51.725Z,15.90
2018-10-16T00:07:57.657Z,15.90
2018-10-16T00:09:02.911Z,15.90
2018-10-16T00:10:08.244Z,15.90
2018-10-16T00:11:12.679Z,15.90
2018-10-16T00:12:17.009Z,15.90
2018-10-16T00:13:21.418Z,15.90
2018-10-16T00:14:25.758Z,15.90
2018-10-16T00:15:31.340Z,15.90
2018-10-16T00:16:35.671Z,15.90
2018-10-16T00:17:40.440Z,15.90
2018-10-16T00:18:44.919Z,15.90
2018-10-16T00:19:49.229Z,15.90
2018-10-16T00:20:53.748Z,15.90
2018-10-16T00:21:58.127Z,15.90
2018-10-16T00:23:02.644Z,15.90
2018-10-16T00:24:07.253Z,15.90
2018-10-16T00:25:14.462Z,15.80
2018-10-16T00:26:19.870Z,15.80
2018-10-16T00:27:24.577Z,15.70
2018-10-16T00:28:29.039Z,15.70
2018-10-16T00:29:33.767Z,15.70
2018-10-16T00:30:38.125Z,15.60
2018-10-16T00:31:43.121Z,15.60
2018-10-16T00:32:47.967Z,15.60
2018-10-16T00:33:52.478Z,15.60
2018-10-16T00:34:57.058Z,15.50
2018-10-16T00:36:02.839Z,15.60
2018-10-16T00:37:07.495Z,15.50
2018-10-16T00:38:12.327Z,15.50
2018-10-16T00:39:17.393Z,15.50
2018-10-16T00:40:21.740Z,15.50
2018-10-16T00:41:26.121Z,15.50
2018-10-16T00:42:30.502Z,15.50
2018-10-16T00:43:34.844Z,15.50
2018-10-16T00:44:39.197Z,15.50
2018-10-16T00:45:43.580Z,15.50
2018-10-16T00:46:47.928Z,15.50
2018-10-16T00:47:52.802Z,15.50
2018-10-16T00:48:57.610Z,15.50
2018-10-16T00:50:01.919Z,15.50
2018-10-16T00:51:06.887Z,15.50
2018-10-16T00:52:11.199Z,15.50
2018-10-16T00:53:15.754Z,15.40
2018-10-16T00:54:20.429Z,15.40
2018-10-16T00:55:25.211Z,15.40
2018-10-16T00:56:29.524Z,15.40
2018-10-16T00:57:33.861Z,15.30
2018-10-16T00:58:38.267Z,15.30
2018-10-16T00:59:42.789Z,15.30
2018-10-16T01:00:47.412Z,15.30
2018-10-16T01:01:52.220Z,15.20
2018-10-16T01:02:56.848Z,15.20
2018-10-16T01:04:03.057Z,15.20
2018-10-16T01:05:08.752Z,15.20
2018-10-16T01:06:13.499Z,15.20
2018-10-16T01:07:17.899Z,15.20
2018-10-16T01:08:22.472Z,15.20
2018-10-16T01:09:27.038Z,15.10
2018-10-16T01:10:32.111Z,15.10
2018-10-16T01:11:36.848Z,15.10
2018-10-16T01:12:41.662Z,15.10
2018-10-16T01:13:46.094Z,15.00
2018-10-16T01:14:51.080Z,15.00
2018-10-16T01:15:55.565Z,15.00
2018-10-16T01:16:59.938Z,15.00
2018-10-16T01:18:04.640Z,15.00
2018-10-16T01:19:09.589Z,15.00
2018-10-16T01:20:14.973Z,15.00
2018-10-16T01:21:19.997Z,15.00
2018-10-16T01:22:24.442Z,15.00
2018-10-16T01:23:29.246Z,15.00
2018-10-16T01:24:34.110Z,14.90
2018-10-16T01:25:38.560Z,14.80
2018-10-16T01:26:42.995Z,14.90
2018-10-16T01:27:47.487Z,14.90
2018-10-16T01:28:52.152Z,14.90
2018-10-16T01:29:56.565Z,14.90
2018-10-16T01:31:01.164Z,14.90
2018-10-16T01:32:06.429Z,14.90
2018-10-16T01:33:11.006Z,14.90
2018-10-16T01:34:18.852Z,14.90
2018-10-16T01:35:23.281Z,14.90
2018-10-16T01:36:28.633Z,14.90
2018-10-16T01:37:33.242Z,14.90
2018-10-16T01:38:37.669Z,14.90
2018-10-16T01:39:41.983Z,14.80
2018-10-16T01:40:46.428Z,14.90
2018-10-16T01:41:50.855Z,14.90
2018-10-16T01:42:55.992Z,14.90
2018-10-16T01:44:00.560Z,14.90
2018-10-16T01:45:04.986Z,14.90
2018-10-16T01:46:10.135Z,14.90
2018-10-16T01:47:14.478Z,14.90
2018-10-16T01:48:19.394Z,14.90
2018-10-16T01:49:23.814Z,14.90
2018-10-16T01:50:28.182Z,14.90
2018-10-16T01:51:33.580Z,14.90
2018-10-16T01:52:37.992Z,14.90
2018-10-16T01:53:42.394Z,14.90
2018-10-16T01:54:46.790Z,14.90
2018-10-16T01:55:51.527Z,14.90
2018-10-16T01:56:55.834Z,14.90
2018-10-16T01:58:00.336Z,14.90
2018-10-16T01:59:04.908Z,14.90
2018-10-16T02:00:10.958Z,14.90
2018-10-16T02:01:15.416Z,14.90
2018-10-16T02:02:19.774Z,14.90
2018-10-16T02:03:24.549Z,14.90
2018-10-16T02:04:29.137Z,14.90
2018-10-16T02:05:33.450Z,14.90
2018-10-16T02:06:38.136Z,14.90
2018-10-16T02:07:42.727Z,14.90
2018-10-16T02:08:47.047Z,14.90
2018-10-16T02:09:51.764Z,14.80
2018-10-16T02:10:56.081Z,14.90
2018-10-16T02:12:00.442Z,14.90
2018-10-16T02:13:04.848Z,14.90
2018-10-16T02:14:09.618Z,14.90
2018-10-16T02:17:21.097Z,14.80
2018-10-16T02:18:26.209Z,14.80
2018-10-16T02:19:30.536Z,14.80
2018-10-16T02:20:35.014Z,14.80
2018-10-16T02:21:39.403Z,14.80
2018-10-16T02:22:43.778Z,14.80
2018-10-16T02:23:48.504Z,14.80
2018-10-16T02:24:58.837Z,14.80
2018-10-16T02:26:06.863Z,14.80
2018-10-16T02:27:11.226Z,14.80
2018-10-16T02:28:17.015Z,14.80
2018-10-16T02:29:30.402Z,14.80
2018-10-16T02:30:35.779Z,14.80
2018-10-16T02:31:42.079Z,14.80
2018-10-16T02:32:52.846Z,14.80
2018-10-16T02:33:57.694Z,14.80
2018-10-16T02:35:08.166Z,14.80
2018-10-16T02:36:18.891Z,14.80
2018-10-16T02:37:25.546Z,14.70
2018-10-16T02:38:32.917Z,14.80
2018-10-16T02:39:37.465Z,14.80
2018-10-16T02:40:41.939Z,14.80
2018-10-16T02:41:47.116Z,14.80
2018-10-16T02:42:51.474Z,14.80
2018-10-16T02:43:55.789Z,14.80
2018-10-16T02:45:00.129Z,14.80
2018-10-16T02:46:04.857Z,14.80
2018-10-16T02:47:09.417Z,14.80
2018-10-16T02:48:13.937Z,14.80
2018-10-16T02:49:18.273Z,14.80
2018-10-16T02:50:22.599Z,14.90
2018-10-16T02:51:26.969Z,14.90
2018-10-16T02:52:31.911Z,14.90
2018-10-16T02:53:36.755Z,14.90
2018-10-16T02:54:41.113Z,14.80
2018-10-16T02:55:45.827Z,14.80
2018-10-16T02:56:50.210Z,14.80
2018-10-16T02:57:54.741Z,14.80
2018-10-16T02:58:59.575Z,14.80
2018-10-16T03:00:04.545Z,14.80
2018-10-16T03:01:10.123Z,14.80
2018-10-16T03:02:14.746Z,14.70
2018-10-16T03:03:19.152Z,14.80
2018-10-16T03:04:23.515Z,14.80
2018-10-16T03:05:27.826Z,14.70
2018-10-16T03:06:33.098Z,14.70
2018-10-16T03:07:37.809Z,14.70
2018-10-16T03:08:42.438Z,14.70
2018-10-16T03:09:47.039Z,14.80
2018-10-16T03:10:51.541Z,14.80
2018-10-16T03:11:55.858Z,14.80
2018-10-16T03:13:00.214Z,14.80
2018-10-16T03:14:04.644Z,14.80
2018-10-16T03:15:11.700Z,14.80
2018-10-16T03:16:16.326Z,14.80
2018-10-16T03:17:20.644Z,14.80
2018-10-16T03:19:38.353Z,14.80
2018-10-16T03:20:43.106Z,14.80
2018-10-16T03:21:52.316Z,14.80
2018-10-16T03:22:57.522Z,14.80
2018-10-16T03:24:01.871Z,14.80
2018-10-16T03:25:07.137Z,14.80
2018-10-16T03:26:11.515Z,14.80
2018-10-16T03:27:15.881Z,14.80
2018-10-16T03:28:20.210Z,14.80
2018-10-16T03:29:24.701Z,14.80
2018-10-16T03:30:29.159Z,14.80
2018-10-16T03:31:33.568Z,14.80
2018-10-16T03:32:39.295Z,14.80
2018-10-16T03:33:43.617Z,14.80
2018-10-16T03:34:47.964Z,14.80
2018-10-16T03:35:52.669Z,14.70
2018-10-16T03:36:57.100Z,14.70
2018-10-16T03:38:01.420Z,14.70
2018-10-16T03:39:07.609Z,14.60
2018-10-16T03:40:12.520Z,14.60
2018-10-16T03:41:16.893Z,14.60
2018-10-16T03:42:21.200Z,14.60
2018-10-16T03:43:25.517Z,14.60
2018-10-16T03:44:29.859Z,14.50
2018-10-16T03:45:34.405Z,14.50
2018-10-16T03:46:38.777Z,14.50
2018-10-16T03:47:43.148Z,14.50
2018-10-16T03:48:47.485Z,14.50
2018-10-16T03:49:51.880Z,14.50
2018-10-16T03:50:56.172Z,14.50
2018-10-16T03:52:00.462Z,14.50
2018-10-16T03:53:04.801Z,14.50
2018-10-16T03:56:05.649Z,14.50
2018-10-16T03:57:10.627Z,14.50
2018-10-16T03:58:14.949Z,14.50
2018-10-16T03:59:19.694Z,14.50
2018-10-16T04:00:24.099Z,14.50
2018-10-16T04:01:30.128Z,14.50
2018-10-16T04:02:37.663Z,14.50
2018-10-16T04:03:42.684Z,14.50
2018-10-16T04:04:49.077Z,14.50
2018-10-16T04:05:54.659Z,14.50
2018-10-16T04:07:00.327Z,14.50
2018-10-16T04:08:04.967Z,14.60
2018-10-16T04:09:09.693Z,14.50
2018-10-16T04:10:14.127Z,14.60
2018-10-16T04:11:18.714Z,14.60
2018-10-16T04:12:23.195Z,14.60
2018-10-16T04:13:27.863Z,14.60
2018-10-16T04:14:32.218Z,14.60
2018-10-16T04:15:37.483Z,14.60
2018-10-16T04:16:41.846Z,14.60
2018-10-16T04:17:46.399Z,14.60
2018-10-16T04:18:51.037Z,14.60
2018-10-16T04:19:55.483Z,14.60
2018-10-16T04:20:59.893Z,14.60
2018-10-16T04:22:04.980Z,14.60
2018-10-16T04:23:09.297Z,14.70
2018-10-16T04:24:15.290Z,14.60
2018-10-16T04:25:20.453Z,14.60
2018-10-16T04:26:25.691Z,14.70
2018-10-16T04:27:31.206Z,14.60
2018-10-16T04:28:35.634Z,14.70
2018-10-16T04:29:41.428Z,14.60
2018-10-16T04:30:45.915Z,14.70
2018-10-16T04:31:50.247Z,14.70
2018-10-16T04:32:55.673Z,14.70
2018-10-16T04:34:00.555Z,14.70
2018-10-16T04:35:09.867Z,14.70
2018-10-16T04:36:14.347Z,14.70
2018-10-16T04:37:18.680Z,14.70
2018-10-16T04:38:23.063Z,14.70
2018-10-16T04:39:27.470Z,14.70
2018-10-16T04:40:31.810Z,14.70
2018-10-16T04:41:36.292Z,14.70
2018-10-16T04:42:43.539Z,14.70
2018-10-16T04:43:47.974Z,14.70
2018-10-16T04:44:52.347Z,14.70
2018-10-16T04:45:57.393Z,14.70
2018-10-16T04:47:03.851Z,14.70
2018-10-16T04:48:08.338Z,14.70
2018-10-16T04:49:12.673Z,14.70
2018-10-16T04:50:17.041Z,14.70
2018-10-16T04:51:22.129Z,14.70
2018-10-16T04:52:27.702Z,14.70
2018-10-16T04:53:32.011Z,14.70
2018-10-16T04:54:37.313Z,14.70
2018-10-16T04:55:41.706Z,14.70
2018-10-16T04:56:46.239Z,14.70
2018-10-16T04:57:51.163Z,14.70
2018-10-16T04:58:55.503Z,14.70
2018-10-16T04:59:59.913Z,14.70
2018-10-16T05:01:04.414Z,14.70
2018-10-16T05:02:08.739Z,14.70
2018-10-16T05:03:13.158Z,14.70
2018-10-16T05:04:17.685Z,14.70
2018-10-16T05:05:23.969Z,14.70
2018-10-16T05:06:28.365Z,14.80
2018-10-16T05:07:32.667Z,14.80
2018-10-16T05:08:37.138Z,14.80
2018-10-16T05:09:41.698Z,14.80
2018-10-16T05:10:46.076Z,14.80
2018-10-16T05:11:52.482Z,14.70
2018-10-16T05:12:56.842Z,14.80
2018-10-16T05:14:01.538Z,14.80
2018-10-16T05:15:06.264Z,14.80
2018-10-16T05:16:11.276Z,14.70
2018-10-16T05:17:15.848Z,14.70
2018-10-16T05:18:20.249Z,14.80
2018-10-16T05:19:24.712Z,14.70
2018-10-16T05:20:29.149Z,14.70
2018-10-16T05:21:33.550Z,14.70
2018-10-16T05:22:39.126Z,14.70
2018-10-16T05:23:43.462Z,14.70
2018-10-16T05:24:54.375Z,14.70
2018-10-16T05:25:58.771Z,14.70
2018-10-16T05:27:03.134Z,14.70
2018-10-16T05:28:07.548Z,14.70
2018-10-16T05:29:13.268Z,14.60
2018-10-16T05:30:18.668Z,14.60
2018-10-16T05:31:23.164Z,14.60
2018-10-16T05:32:27.726Z,14.60
2018-10-16T05:33:32.575Z,14.70
2018-10-16T05:34:38.316Z,14.60
2018-10-16T05:35:42.679Z,14.60
2018-10-16T05:36:47.063Z,14.70
2018-10-16T05:37:51.471Z,14.60
2018-10-16T05:38:56.576Z,14.60
2018-10-16T05:40:01.000Z,14.60
2018-10-16T05:41:06.104Z,14.60
2018-10-16T05:42:10.537Z,14.60
2018-10-16T05:43:15.119Z,14.60
2018-10-16T05:44:19.421Z,14.60
2018-10-16T05:45:26.951Z,14.60
2018-10-16T05:46:32.300Z,14.60
2018-10-16T05:47:36.654Z,14.60
2018-10-16T05:48:41.291Z,14.60
2018-10-16T05:49:45.772Z,14.60
2018-10-16T05:50:50.883Z,14.60
2018-10-16T05:51:56.518Z,14.60
2018-10-16T05:53:00.941Z,14.60
2018-10-16T05:54:05.825Z,14.70
2018-10-16T05:55:11.155Z,14.70
2018-10-16T05:56:18.547Z,14.70
2018-10-16T05:57:23.075Z,14.70
2018-10-16T05:58:27.455Z,14.70
2018-10-16T05:59:33.229Z,14.70
2018-10-16T06:00:47.956Z,14.70
2018-10-16T06:01:52.935Z,14.70
2018-10-16T06:02:57.488Z,14.70
2018-10-16T06:04:01.828Z,14.70
2018-10-16T06:05:06.603Z,14.70
2018-10-16T06:06:10.919Z,14.70
2018-10-16T06:07:15.952Z,14.70
2018-10-16T06:08:20.880Z,14.70
2018-10-16T06:09:26.248Z,14.70
2018-10-16T06:10:30.875Z,14.70
2018-10-16T06:11:35.294Z,14.70
2018-10-16T06:12:40.308Z,14.70
2018-10-16T06:13:45.899Z,14.70
2018-10-16T06:14:50.779Z,14.70
2018-10-16T06:15:55.699Z,14.70
2018-10-16T06:17:00.104Z,14.70
2018-10-16T06:18:04.554Z,14.70
2018-10-16T06:19:09.168Z,14.70
2018-10-16T06:20:14.020Z,14.70
2018-10-16T06:21:20.078Z,14.70
2018-10-16T06:22:24.474Z,14.70
2018-10-16T06:23:28.853Z,14.70
2018-10-16T06:24:33.542Z,14.70
2018-10-16T06:25:41.671Z,14.70
2018-10-16T06:26:54.397Z,14.70
2018-10-16T06:27:59.544Z,14.70
2018-10-16T06:29:05.828Z,14.70
2018-10-16T06:30:10.500Z,14.70
2018-10-16T06:31:14.850Z,14.80
2018-10-16T06:32:19.646Z,14.80
2018-10-16T06:33:25.950Z,14.80
2018-10-16T06:34:30.656Z,14.80
2018-10-16T06:35:35.090Z,14.80
2018-10-16T06:36:40.064Z,14.70
2018-10-16T06:37:44.399Z,14.70
2018-10-16T06:38:49.850Z,14.70
2018-10-16T06:39:54.285Z,14.80
2018-10-16T06:40:58.949Z,14.80
2018-10-16T06:42:03.305Z,14.70
2018-10-16T06:43:08.689Z,14.70
2018-10-16T06:44:13.190Z,14.80
2018-10-16T06:45:17.577Z,14.70
2018-10-16T06:46:22.797Z,14.70
2018-10-16T06:47:27.794Z,14.80
2018-10-16T06:48:32.438Z,14.70
2018-10-16T06:49:36.759Z,14.70
2018-10-16T06:50:41.332Z,14.70
2018-10-16T06:51:46.295Z,14.70
2018-10-16T06:52:50.860Z,14.70
2018-10-16T06:53:55.324Z,14.80
2018-10-16T06:54:59.887Z,14.70
2018-10-16T06:56:04.258Z,14.80
2018-10-16T06:57:08.688Z,14.70
2018-10-16T06:58:13.259Z,14.70
2018-10-16T06:59:17.686Z,14.70
2018-10-16T07:00:22.310Z,14.70
2018-10-16T07:01:27.417Z,14.70
2018-10-16T07:02:31.798Z,14.70
2018-10-16T07:03:36.272Z,14.70
2018-10-16T07:04:40.667Z,14.70
2018-10-16T07:05:45.478Z,14.70
2018-10-16T07:06:51.945Z,14.70
2018-10-16T07:07:56.450Z,14.70
2018-10-16T07:09:00.876Z,14.80
2018-10-16T07:10:07.099Z,14.80
2018-10-16T07:11:11.449Z,14.80
2018-10-16T07:12:16.647Z,14.80
2018-10-16T07:13:21.409Z,14.80
2018-10-16T07:14:26.067Z,14.80
2018-10-16T07:15:30.783Z,14.80
2018-10-16T07:16:35.403Z,14.80
2018-10-16T07:17:40.029Z,14.90
2018-10-16T07:18:44.787Z,14.90
2018-10-16T07:19:49.206Z,14.90
2018-10-16T07:20:55.082Z,14.90
2018-10-16T07:22:01.053Z,14.90
2018-10-16T07:23:06.935Z,14.90
2018-10-16T07:24:12.179Z,14.90
2018-10-16T07:25:18.147Z,15.00
2018-10-16T07:26:22.649Z,15.00
2018-10-16T07:27:29.959Z,15.00
2018-10-16T07:28:34.371Z,15.00
2018-10-16T07:29:38.821Z,15.00
2018-10-16T07:30:43.374Z,15.00
2018-10-16T07:31:47.745Z,15.00
2018-10-16T07:32:52.417Z,15.10
2018-10-16T07:33:56.985Z,15.10
2018-10-16T07:35:02.384Z,15.10
2018-10-16T07:36:08.860Z,15.10
2018-10-16T07:37:13.339Z,15.10
2018-10-16T07:38:23.494Z,15.10
2018-10-16T07:39:37.993Z,15.10
2018-10-16T07:40:43.059Z,15.10
2018-10-16T07:41:47.727Z,15.10
2018-10-16T07:42:52.583Z,15.10
2018-10-16T07:43:58.736Z,15.20
2018-10-16T07:45:04.669Z,15.20
2018-10-16T07:46:09.956Z,15.20
2018-10-16T07:47:14.648Z,15.20
2018-10-16T07:48:19.195Z,15.30
2018-10-16T07:49:30.173Z,15.30
2018-10-16T07:50:35.956Z,15.30
2018-10-16T07:51:40.626Z,15.30
2018-10-16T07:52:47.512Z,15.40
2018-10-16T07:53:52.453Z,15.40
2018-10-16T07:54:58.369Z,15.40
2018-10-16T07:56:03.598Z,15.40
2018-10-16T07:57:08.289Z,15.50
2018-10-16T07:58:12.692Z,15.50
2018-10-16T07:59:17.178Z,15.50
2018-10-16T08:00:21.962Z,15.60
2018-10-16T08:01:27.163Z,15.60
2018-10-16T08:02:31.889Z,15.60
2018-10-16T08:03:36.550Z,15.70
2018-10-16T08:04:42.006Z,15.70
2018-10-16T08:05:46.761Z,15.70
2018-10-16T08:06:51.185Z,15.70
2018-10-16T08:07:55.678Z,15.80
2018-10-16T08:09:00.292Z,15.80
2018-10-16T08:10:05.586Z,15.80
2018-10-16T08:11:10.242Z,15.90
2018-10-16T08:12:14.654Z,15.90
2018-10-16T08:13:19.441Z,15.90
2018-10-16T08:14:24.855Z,16.00
2018-10-16T08:15:29.370Z,16.00
2018-10-16T08:16:33.924Z,16.00
2018-10-16T08:17:38.572Z,16.00
2018-10-16T08:18:43.180Z,16.00
2018-10-16T08:19:47.796Z,16.10
2018-10-16T08:20:52.367Z,16.10
2018-10-16T08:21:57.024Z,16.20
2018-10-16T08:23:01.644Z,16.20
2018-10-16T08:24:07.932Z,16.20
2018-10-16T08:25:12.514Z,16.30
2018-10-16T08:26:17.291Z,16.30
2018-10-16T08:27:23.128Z,16.30
2018-10-16T08:28:29.291Z,16.40
2018-10-16T08:29:33.889Z,16.40
2018-10-16T08:30:38.386Z,16.40
2018-10-16T08:31:42.881Z,16.40
2018-10-16T08:32:48.280Z,16.50
2018-10-16T08:33:53.252Z,16.50
2018-10-16T08:34:58.713Z,16.50
2018-10-16T08:36:03.954Z,16.50
2018-10-16T08:37:11.983Z,16.50
2018-10-16T08:38:55.386Z,16.60
2018-10-16T08:40:00.927Z,16.60
2018-10-16T08:41:07.908Z,16.70
2018-10-16T08:43:24.014Z,16.70
2018-10-16T08:45:36.654Z,16.70
2018-10-16T08:46:51.801Z,16.90
2018-10-16T08:49:56.477Z,17.00
2018-10-16T08:51:11.750Z,17.10
2018-10-16T08:52:16.620Z,17.20
2018-10-16T08:53:21.080Z,17.30
2018-10-16T08:54:25.814Z,17.30
2018-10-16T08:55:30.849Z,17.40
2018-10-16T08:56:35.399Z,17.50
2018-10-16T08:57:39.966Z,17.50
2018-10-16T08:58:44.464Z,17.60
2018-10-16T08:59:50.313Z,17.60
2018-10-16T09:00:57.318Z,17.60
2018-10-16T09:02:01.840Z,17.70
2018-10-16T09:03:12.241Z,17.80
2018-10-16T09:04:17.780Z,17.80
2018-10-16T09:05:22.931Z,17.80
2018-10-16T09:06:27.354Z,17.90
2018-10-16T09:07:32.206Z,17.90
2018-10-16T09:08:36.679Z,17.90
2018-10-16T09:09:41.367Z,17.90
2018-10-16T09:10:46.859Z,17.90
2018-10-16T09:11:51.580Z,17.90
2018-10-16T09:12:56.954Z,17.90
2018-10-16T09:14:03.945Z,18.00
2018-10-16T09:15:09.870Z,17.90
2018-10-16T09:16:14.778Z,18.00
2018-10-16T09:17:19.594Z,18.00
2018-10-16T09:18:24.112Z,18.00
2018-10-16T09:19:28.770Z,17.90
2018-10-16T09:20:33.218Z,17.90
2018-10-16T09:21:37.645Z,17.90
2018-10-16T09:22:42.988Z,17.90
2018-10-16T09:23:47.870Z,17.90
2018-10-16T09:24:52.476Z,18.00
2018-10-16T09:25:57.870Z,18.00
2018-10-16T09:27:02.939Z,18.00
2018-10-16T09:28:07.521Z,18.00
2018-10-16T09:29:12.315Z,18.00
2018-10-16T09:30:16.926Z,18.00
2018-10-16T09:31:21.410Z,18.10
2018-10-16T09:32:26.184Z,18.10
2018-10-16T09:33:30.695Z,18.10
2018-10-16T09:34:35.199Z,18.10
2018-10-16T09:35:39.752Z,18.10
2018-10-16T09:36:45.046Z,18.10
2018-10-16T09:37:50.511Z,18.10
2018-10-16T09:38:54.993Z,18.20
2018-10-16T09:39:59.581Z,18.20
2018-10-16T09:41:04.158Z,18.20
2018-10-16T09:42:10.680Z,18.20
2018-10-16T09:43:15.526Z,18.30
2018-10-16T09:44:22.254Z,18.30
2018-10-16T09:45:26.714Z,18.30
2018-10-16T09:46:31.223Z,18.40
2018-10-16T09:47:35.735Z,18.40
2018-10-16T09:48:40.402Z,18.50
2018-10-16T09:49:46.085Z,18.50
2018-10-16T09:50:51.821Z,18.50
2018-10-16T09:52:07.703Z,18.50
2018-10-16T09:53:15.106Z,18.50
2018-10-16T09:54:20.353Z,18.50
2018-10-16T09:55:26.442Z,18.50
2018-10-16T09:56:34.442Z,18.50
2018-10-16T09:57:39.270Z,18.50
2018-10-16T09:59:05.681Z,18.50
2018-10-16T10:00:17.988Z,18.60
2018-10-16T10:02:00.377Z,18.60
2018-10-16T10:03:06.398Z,18.60
2018-10-16T10:04:12.222Z,18.60
2018-10-16T10:05:17.904Z,18.70
2018-10-16T10:06:23.956Z,18.70
2018-10-16T10:07:38.037Z,18.70
2018-10-16T10:08:43.625Z,18.80
2018-10-16T10:09:50.372Z,18.80
2018-10-16T10:10:55.305Z,18.80
2018-10-16T10:12:05.790Z,18.80
2018-10-16T10:13:10.940Z,18.90
2018-10-16T10:14:15.938Z,19.00
2018-10-16T10:15:26.400Z,19.00
2018-10-16T10:16:32.699Z,19.00
2018-10-16T10:17:38.282Z,19.00
2018-10-16T10:18:47.151Z,19.00
2018-10-16T10:19:59.417Z,19.00
2018-10-16T10:21:04.389Z,19.10
2018-10-16T10:22:13.133Z,19.10
2018-10-16T10:23:19.527Z,19.20
2018-10-16T10:24:24.691Z,19.20
2018-10-16T10:25:54.080Z,19.30
2018-10-16T10:26:58.934Z,19.40
2018-10-16T10:28:07.758Z,19.50
2018-10-16T10:29:18.540Z,19.50
2018-10-16T10:30:25.499Z,19.50
2018-10-16T10:31:52.789Z,19.50
2018-10-16T10:32:58.089Z,19.50
2018-10-16T10:34:03.356Z,19.60
2018-10-16T10:35:10.303Z,19.60
2018-10-16T10:36:15.790Z,19.60
2018-10-16T10:37:20.605Z,19.70
2018-10-16T10:38:28.552Z,19.70
2018-10-16T10:39:34.096Z,19.70
2018-10-16T10:40:43.026Z,19.70
2018-10-16T10:41:48.750Z,19.70
2018-10-16T10:42:55.122Z,19.70
2018-10-16T10:44:00.897Z,19.70
2018-10-16T10:45:06.732Z,19.80
2018-10-16T10:46:11.404Z,19.80
2018-10-16T10:47:16.503Z,19.80
2018-10-16T10:48:21.328Z,19.80
2018-10-16T10:49:26.348Z,19.90
2018-10-16T10:50:31.668Z,19.90
2018-10-16T10:51:36.507Z,19.90
2018-10-16T10:52:40.804Z,20.00
2018-10-16T10:53:46.552Z,20.00
2018-10-16T10:54:53.303Z,20.00
2018-10-16T10:55:57.699Z,20.00
2018-10-16T10:57:13.056Z,20.10
2018-10-16T10:58:19.113Z,20.10
2018-10-16T10:59:25.075Z,20.10
2018-10-16T11:00:30.660Z,20.20
2018-10-16T11:01:35.489Z,20.20
2018-10-16T11:02:40.835Z,20.20
2018-10-16T11:03:49.771Z,20.30
2018-10-16T11:04:54.819Z,20.30
2018-10-16T11:05:59.580Z,20.40
2018-10-16T11:07:04.039Z,20.40
2018-10-16T11:08:08.737Z,20.60
2018-10-16T11:09:14.744Z,20.70
2018-10-16T11:10:20.539Z,20.80
2018-10-16T11:11:25.309Z,20.90
2018-10-16T11:12:31.360Z,21.10
2018-10-16T11:13:36.213Z,21.20
2018-10-16T11:14:40.936Z,21.30
2018-10-16T11:15:46.230Z,21.50
2018-10-16T11:16:50.665Z,21.60
2018-10-16T11:17:55.284Z,21.70
2018-10-16T11:18:59.689Z,21.80
2018-10-16T11:20:04.300Z,21.90
2018-10-16T11:21:09.154Z,22.10
2018-10-16T11:22:13.706Z,22.20
2018-10-16T11:23:18.770Z,22.40
2018-10-16T11:24:27.755Z,22.60
2018-10-16T11:25:32.865Z,22.70
2018-10-16T11:26:57.415Z,22.70
2018-10-16T11:28:16.534Z,23.00
2018-10-16T11:29:21.018Z,23.20
2018-10-16T11:30:48.136Z,23.40
2018-10-16T11:31:53.030Z,23.70
2018-10-16T11:33:01.526Z,24.50
2018-10-16T11:34:06.460Z,25.40
2018-10-16T11:35:13.374Z,26.30
2018-10-16T11:36:18.676Z,27.20
2018-10-16T11:37:23.249Z,27.80
2018-10-16T11:38:28.872Z,28.50
2018-10-16T11:39:38.895Z,29.10
2018-10-16T11:40:44.744Z,29.60
2018-10-16T11:41:50.390Z,30.30
2018-10-16T11:43:01.265Z,30.90
2018-10-16T11:44:09.364Z,31.00
2018-10-16T11:45:13.844Z,31.20
2018-10-16T11:46:18.751Z,31.40
2018-10-16T11:47:25.180Z,31.60
2018-10-16T11:48:29.581Z,31.90
2018-10-16T11:49:34.068Z,32.00
2018-10-16T11:50:39.795Z,32.20
2018-10-16T11:51:46.884Z,32.60
2018-10-16T11:52:54.994Z,32.90
2018-10-16T11:54:06.369Z,33.20
2018-10-16T11:55:14.157Z,33.40
2018-10-16T11:56:19.244Z,33.50
2018-10-16T11:57:23.660Z,34.00
2018-10-16T11:58:28.069Z,34.30
2018-10-16T11:59:34.218Z,34.70
2018-10-16T12:00:39.777Z,34.70
2018-10-16T12:01:44.518Z,34.60
2018-10-16T12:02:49.454Z,34.60
2018-10-16T12:03:55.142Z,34.40
2018-10-16T12:04:59.680Z,34.70
2018-10-16T12:06:04.121Z,35.00
2018-10-16T12:07:08.654Z,35.20
2018-10-16T12:08:13.172Z,35.20
2018-10-16T12:09:18.230Z,35.30
2018-10-16T12:10:24.253Z,35.40
2018-10-16T12:11:29.593Z,35.50
2018-10-16T12:12:35.670Z,35.80
2018-10-16T12:13:40.402Z,36.00
2018-10-16T12:14:44.858Z,36.20
2018-10-16T12:15:52.504Z,36.50
2018-10-16T12:17:05.552Z,36.60
2018-10-16T12:20:22.409Z,36.80
2018-10-16T12:21:28.466Z,37.20
2018-10-16T12:22:33.673Z,36.40
2018-10-16T12:23:39.167Z,35.80
2018-10-16T12:24:44.617Z,35.10
2018-10-16T12:25:49.500Z,34.10
2018-10-16T12:26:54.155Z,33.20
2018-10-16T12:27:59.231Z,32.50
2018-10-16T12:29:03.823Z,31.50
2018-10-16T12:30:09.408Z,31.00
2018-10-16T12:31:13.962Z,31.00
2018-10-16T12:32:18.352Z,31.40
2018-10-16T12:33:22.722Z,31.90
2018-10-16T12:34:27.493Z,32.50
2018-10-16T12:35:32.209Z,33.00
2018-10-16T12:36:38.180Z,33.50
2018-10-16T12:37:44.418Z,33.80
2018-10-16T12:38:49.609Z,34.00
2018-10-16T12:39:55.046Z,34.40
2018-10-16T12:41:00.372Z,34.60
2018-10-16T12:42:05.256Z,34.50
2018-10-16T12:43:10.448Z,34.70
2018-10-16T12:44:14.861Z,34.80
2018-10-16T12:45:20.440Z,34.50
2018-10-16T12:46:24.802Z,34.40
2018-10-16T12:47:31.676Z,34.00
2018-10-16T12:48:37.554Z,33.80
2018-10-16T12:49:42.069Z,33.20
2018-10-16T12:50:47.595Z,32.50
2018-10-16T12:51:52.853Z,31.60
2018-10-16T12:52:57.493Z,30.90
2018-10-16T12:54:01.968Z,30.10
2018-10-16T12:55:06.459Z,29.30
2018-10-16T12:56:11.540Z,28.60
2018-10-16T12:57:16.351Z,28.10
2018-10-16T12:58:37.160Z,27.60
2018-10-16T12:59:42.969Z,27.40
2018-10-16T13:00:47.366Z,27.20
2018-10-16T13:01:54.878Z,26.90
2018-10-16T13:02:59.872Z,26.50
2018-10-16T13:04:06.608Z,26.20
2018-10-16T13:05:15.395Z,26.00
2018-10-16T13:06:41.752Z,25.70
2018-10-16T13:07:48.338Z,25.50
2018-10-16T13:09:07.364Z,25.40
2018-10-16T13:10:14.854Z,25.20
2018-10-16T13:11:19.748Z,25.00
2018-10-16T13:12:24.298Z,24.80
2018-10-16T13:13:29.744Z,24.70
2018-10-16T13:14:34.712Z,24.50
2018-10-16T13:15:39.384Z,24.40
2018-10-16T13:16:43.932Z,24.30
2018-10-16T13:17:48.488Z,24.20
2018-10-16T13:18:52.987Z,24.10
2018-10-16T13:19:57.818Z,24.00
2018-10-16T13:21:05.183Z,23.90
2018-10-16T13:22:09.803Z,23.90
2018-10-16T13:23:14.597Z,23.80
2018-10-16T13:24:20.031Z,23.70
2018-10-16T13:25:25.089Z,23.70
2018-10-16T13:26:29.966Z,23.70
2018-10-16T13:27:34.545Z,23.70
2018-10-16T13:28:39.882Z,23.90
2018-10-16T13:29:47.314Z,23.80
2018-10-16T13:30:51.798Z,23.80
2018-10-16T13:31:56.380Z,23.70
2018-10-16T13:33:01.840Z,23.70
2018-10-16T13:34:07.536Z,23.60
2018-10-16T13:35:14.338Z,23.50
2018-10-16T13:36:19.319Z,23.50
2018-10-16T13:37:24.623Z,23.60
2018-10-16T13:38:30.101Z,23.50
2018-10-16T13:39:34.645Z,23.50
2018-10-16T13:40:40.564Z,23.40
2018-10-16T13:41:46.277Z,23.40
2018-10-16T13:42:51.631Z,23.40
2018-10-16T13:43:56.043Z,23.30
2018-10-16T13:45:07.855Z,23.30
2018-10-16T13:46:14.192Z,23.40
2018-10-16T13:47:19.206Z,23.40
2018-10-16T13:48:23.808Z,23.40
2018-10-16T13:49:29.155Z,23.30
2018-10-16T13:50:34.188Z,23.20
2018-10-16T13:51:40.118Z,23.20
2018-10-16T13:52:45.122Z,23.10
2018-10-16T13:53:49.772Z,23.00
2018-10-16T13:54:54.326Z,23.00
2018-10-16T13:55:59.866Z,23.00
2018-10-16T13:57:05.902Z,22.90
2018-10-16T13:58:10.399Z,22.90
2018-10-16T13:59:14.868Z,22.80
2018-10-16T14:00:22.575Z,22.70
2018-10-16T14:01:31.171Z,22.70
2018-10-16T14:02:35.515Z,22.60
2018-10-16T14:03:41.348Z,22.60
2018-10-16T14:04:46.820Z,22.50
2018-10-16T14:05:51.812Z,22.50
2018-10-16T14:06:57.043Z,22.50
2018-10-16T14:08:01.707Z,22.50
2018-10-16T14:09:10.110Z,22.40
2018-10-16T14:10:15.555Z,22.40
2018-10-16T14:11:19.912Z,22.40
2018-10-16T14:12:25.354Z,22.30
2018-10-16T14:13:29.867Z,22.20
2018-10-16T14:14:34.237Z,22.20
2018-10-16T14:15:38.979Z,22.10
2018-10-16T14:16:43.756Z,22.10